Time;durP1;ratioP1;P1;durP2;ratioP2;P2;SDS_P1;SDS_P2;PMS_P1;PMS_P2;Temp;Humidity;BMP_temperature;BMP_pressure;BME280_temperature;BME280_humidity;BME280_pressure;Samples;Min_cycle;Max_cycle;Signal;HPM_P1;HPM_P2
2021/12/10 00:01:11;;;;;;;5.87;3.13;;;4.20;90.70;;;;;;5119290;28;20198;-46
2021/12/10 00:03:42;;;;;;;6.43;2.63;;;4.20;90.70;;;;;;5118972;28;20179;-45
2021/12/10 00:06:20;;;;;;;6.10;3.07;;;4.10;90.70;;;;;;5101109;28;20452;-46
2021/12/10 00:08:50;;;;;;;7.27;3.17;;;4.10;90.70;;;;;;5119124;28;20433;-46
2021/12/10 00:11:22;;;;;;;7.63;3.33;;;4.10;90.70;;;;;;5118961;28;20522;-46
2021/12/10 00:13:48;;;;;;;5.67;2.90;;;4.10;90.70;;;;;;5118174;28;20414;-44
2021/12/10 00:16:15;;;;;;;4.43;2.87;;;4.00;90.60;;;;;;5117607;28;20866;-46
2021/12/10 00:18:47;;;;;;;3.37;2.83;;;4.00;90.60;;;;;;5119164;28;20482;-46
2021/12/10 00:21:13;;;;;;;3.93;2.70;;;4.00;90.70;;;;;;5118674;28;20441;-46
2021/12/10 00:23:39;;;;;;;3.30;2.07;;;4.00;90.70;;;;;;5118871;28;20429;-45
2021/12/10 00:26:06;;;;;;;4.93;2.83;;;4.00;90.70;;;;;;5118994;28;20255;-46
2021/12/10 00:28:35;;;;;;;4.33;2.70;;;3.90;90.60;;;;;;5119003;28;20183;-46
2021/12/10 00:31:51;;;;;;;5.00;3.30;;;3.90;90.60;;;;;;5118718;28;20473;-46
2021/12/10 00:33:56;;;;;;;6.67;2.93;;;3.90;90.70;;;;;;5110328;28;20425;-46
2021/12/10 00:36:22;;;;;;;6.93;3.00;;;3.90;90.70;;;;;;5118504;28;20421;-46
2021/12/10 00:38:51;;;;;;;4.00;2.60;;;3.80;90.70;;;;;;5118608;28;20448;-46
2021/12/10 00:41:17;;;;;;;8.30;3.10;;;3.80;90.70;;;;;;5117660;28;20702;-46
2021/12/10 00:43:43;;;;;;;5.10;2.80;;;3.80;90.70;;;;;;5118610;28;20416;-45
2021/12/10 00:46:09;;;;;;;5.90;3.17;;;3.80;90.60;;;;;;5118403;28;20559;-46
2021/12/10 00:48:35;;;;;;;4.57;3.03;;;3.80;90.60;;;;;;5117752;28;20819;-46
2021/12/10 00:51:02;;;;;;;3.70;2.70;;;3.70;90.60;;;;;;5117020;28;20228;-46
2021/12/10 00:53:27;;;;;;;7.07;2.70;;;3.70;90.60;;;;;;5117022;28;20179;-46
2021/12/10 00:55:53;;;;;;;3.07;2.23;;;3.70;90.60;;;;;;5117995;28;20477;-45
2021/12/10 00:58:20;;;;;;;7.80;2.73;;;3.70;90.60;;;;;;5117869;28;20179;-46
2021/12/10 01:00:51;;;;;;;4.40;2.70;;;3.60;90.70;;;;;;5118355;28;20832;-46
2021/12/10 01:03:25;;;;;;;3.63;3.13;;;3.60;90.70;;;;;;5118124;28;20422;-46
2021/12/10 01:05:53;;;;;;;6.80;3.00;;;3.60;90.70;;;;;;5117117;28;20843;-45
2021/12/10 01:08:19;;;;;;;4.87;2.53;;;3.60;90.70;;;;;;5117247;28;20414;-46
2021/12/10 01:10:52;;;;;;;3.53;2.60;;;3.60;90.70;;;;;;5117788;28;21008;-46
2021/12/10 01:13:26;;;;;;;4.60;3.03;;;3.60;90.60;;;;;;5117809;28;20449;-45
2021/12/10 01:24:51;;;;;;;3.77;1.90;;;4.20;98.80;;;;;;5117625;28;20452;-45
2021/12/10 01:27:27;;;;;;;3.40;2.27;;;6.00;99.90;;;;;;5117414;28;20455;-45
2021/12/10 01:29:56;;;;;;;5.40;2.17;;;7.50;99.90;;;;;;5118200;28;20419;-44
2021/12/10 01:32:25;;;;;;;6.10;1.80;;;8.50;99.90;;;;;;5117986;28;20406;-45
2021/12/10 01:34:51;;;;;;;8.87;2.30;;;9.20;99.90;;;;;;5117353;28;20660;-45
2021/12/10 01:37:17;;;;;;;3.57;2.10;;;9.90;99.90;;;;;;5117730;28;20497;-45
2021/12/10 01:39:44;;;;;;;4.63;2.10;;;10.40;99.90;;;;;;5117747;28;20459;-45
2021/12/10 01:42:31;;;;;;;2.77;2.10;;;10.90;99.30;;;;;;5116798;28;20557;-45
2021/12/10 01:44:58;;;;;;;7.73;2.27;;;11.40;97.00;;;;;;5119080;28;20413;-45
2021/12/10 01:47:32;;;;;;;3.77;2.87;;;11.80;95.20;;;;;;5121630;28;20422;-46
2021/12/10 01:49:58;;;;;;;6.23;3.60;;;11.70;94.20;;;;;;5121597;28;20460;-46
2021/12/10 01:52:25;;;;;;;4.30;3.33;;;11.30;91.20;;;;;;5121559;28;20790;-45
2021/12/10 01:54:58;;;;;;;6.20;3.80;;;10.60;87.90;;;;;;5121641;28;20511;-44
2021/12/10 01:57:32;;;;;;;7.07;3.40;;;9.90;86.50;;;;;;5121381;28;20850;-44
2021/12/10 01:59:57;;;;;;;5.13;2.60;;;9.10;85.10;;;;;;5121293;28;20672;-44
2021/12/10 02:02:29;;;;;;;7.27;4.03;;;8.40;84.30;;;;;;5120413;28;20489;-44
2021/12/10 02:04:55;;;;;;;9.60;4.70;;;7.80;84.20;;;;;;5120714;28;20180;-44
2021/12/10 02:07:24;;;;;;;9.27;4.77;;;7.30;84.10;;;;;;5121090;28;20419;-43
2021/12/10 02:09:50;;;;;;;8.77;3.90;;;6.90;84.30;;;;;;5121027;28;20820;-44
2021/12/10 02:12:19;;;;;;;7.03;3.47;;;6.50;84.40;;;;;;5119966;28;20769;-45
2021/12/10 02:14:46;;;;;;;6.90;2.63;;;6.10;84.60;;;;;;5120396;28;20410;-44
2021/12/10 02:17:12;;;;;;;3.50;2.53;;;5.80;84.80;;;;;;5120345;28;20532;-44
2021/12/10 02:19:39;;;;;;;4.40;2.43;;;5.50;85.00;;;;;;5119529;28;20763;-44
2021/12/10 02:22:06;;;;;;;3.10;2.47;;;5.30;85.20;;;;;;5119097;28;20429;-44
2021/12/10 02:24:32;;;;;;;4.80;2.80;;;5.10;85.30;;;;;;5120315;28;20465;-43
2021/12/10 02:27:01;;;;;;;4.93;2.83;;;4.90;85.40;;;;;;5119873;28;20445;-44
2021/12/10 02:29:30;;;;;;;4.80;2.63;;;4.70;85.70;;;;;;5120077;28;20478;-44
2021/12/10 02:31:55;;;;;;;6.70;4.13;;;4.60;86.20;;;;;;5119847;28;20645;-44
2021/12/10 02:34:22;;;;;;;5.10;3.70;;;4.50;86.60;;;;;;5120387;28;20815;-44
2021/12/10 02:36:48;;;;;;;6.87;3.60;;;4.40;87.00;;;;;;5120401;28;20430;-44
2021/12/10 02:39:17;;;;;;;5.10;2.70;;;4.30;87.30;;;;;;5120313;28;20421;-44
2021/12/10 02:41:43;;;;;;;7.43;3.10;;;4.30;87.60;;;;;;5120832;28;20469;-44
2021/12/10 02:44:14;;;;;;;7.03;3.13;;;4.20;87.80;;;;;;5120799;28;20469;-44
2021/12/10 02:46:40;;;;;;;8.80;3.87;;;4.10;87.70;;;;;;5120545;28;20434;-44
2021/12/10 02:49:08;;;;;;;6.83;4.27;;;4.10;87.80;;;;;;5120641;28;20429;-44
2021/12/10 02:51:35;;;;;;;7.60;4.60;;;4.00;87.80;;;;;;5120211;28;20500;-44
2021/12/10 02:54:03;;;;;;;9.77;5.07;;;4.00;88.50;;;;;;5120353;28;20445;-44
2021/12/10 02:56:29;;;;;;;7.40;4.53;;;3.90;87.50;;;;;;5119080;28;20441;-44
2021/12/10 02:58:59;;;;;;;11.67;5.93;;;3.80;87.40;;;;;;5120017;28;20687;-44
2021/12/10 03:01:34;;;;;;;11.90;6.10;;;3.80;87.50;;;;;;5120314;28;20434;-44
2021/12/10 03:04:00;;;;;;;10.70;7.60;;;3.70;87.40;;;;;;5119399;28;20752;-44
2021/12/10 03:06:27;;;;;;;15.33;7.00;;;3.60;87.30;;;;;;5119185;28;20430;-44
2021/12/10 03:08:53;;;;;;;6.37;4.60;;;3.60;87.30;;;;;;5118922;28;20418;-44
2021/12/10 03:11:24;;;;;;;8.40;4.20;;;3.50;87.20;;;;;;5119156;28;20875;-44
2021/12/10 03:13:50;;;;;;;6.27;4.20;;;3.50;87.40;;;;;;5119078;28;20419;-44
2021/12/10 03:16:16;;;;;;;8.10;5.10;;;3.40;87.30;;;;;;5117454;28;20745;-44
2021/12/10 03:18:42;;;;;;;11.20;7.00;;;3.40;87.50;;;;;;5116688;28;20402;-44
2021/12/10 03:21:09;;;;;;;7.90;5.97;;;3.30;87.60;;;;;;5116994;28;20422;-45
2021/12/10 03:23:42;;;;;;;9.80;7.07;;;3.30;87.80;;;;;;5117039;28;20502;-44
2021/12/10 03:26:12;;;;;;;9.43;6.60;;;3.30;87.80;;;;;;5117128;28;20782;-44
2021/12/10 03:28:41;;;;;;;11.00;6.63;;;3.30;88.10;;;;;;5116762;28;20729;-44
2021/12/10 03:31:07;;;;;;;8.37;5.60;;;3.20;88.10;;;;;;5117767;28;20846;-44
2021/12/10 03:33:34;;;;;;;7.70;5.20;;;3.20;88.20;;;;;;5119891;28;20406;-44
2021/12/10 03:36:00;;;;;;;9.17;5.73;;;3.20;88.10;;;;;;5119670;28;20506;-44
2021/12/10 03:38:26;;;;;;;6.90;4.40;;;3.20;88.10;;;;;;5119223;28;20410;-44
2021/12/10 03:40:52;;;;;;;4.80;3.40;;;3.20;88.20;;;;;;5119146;28;20426;-44
2021/12/10 03:43:18;;;;;;;6.40;3.90;;;3.10;88.20;;;;;;5119450;28;20406;-44
2021/12/10 03:45:49;;;;;;;10.63;3.97;;;3.10;88.30;;;;;;5118540;28;20441;-44
2021/12/10 03:48:19;;;;;;;4.60;3.40;;;3.10;88.30;;;;;;5117616;28;20422;-43
2021/12/10 03:50:45;;;;;;;4.40;3.10;;;3.10;88.40;;;;;;5117930;28;20930;-53
2021/12/10 03:53:11;;;;;;;4.87;3.40;;;3.10;88.40;;;;;;5118228;28;20807;-44
2021/12/10 03:55:37;;;;;;;4.83;3.00;;;3.00;88.30;;;;;;5118340;28;20473;-44
2021/12/10 03:58:04;;;;;;;4.40;3.10;;;3.00;88.30;;;;;;5117810;28;20441;-44
2021/12/10 04:00:35;;;;;;;6.13;3.23;;;3.00;88.40;;;;;;5118522;28;20237;-44
2021/12/10 04:03:02;;;;;;;5.70;3.27;;;3.00;88.40;;;;;;5118362;28;20698;-44
2021/12/10 04:05:27;;;;;;;5.20;2.47;;;3.00;88.40;;;;;;5118167;28;20434;-44
2021/12/10 04:07:54;;;;;;;4.27;2.80;;;2.90;88.40;;;;;;5117615;28;20891;-44
2021/12/10 04:10:21;;;;;;;4.43;3.03;;;2.90;88.30;;;;;;5115940;28;20208;-44
2021/12/10 04:12:47;;;;;;;3.90;2.60;;;2.90;88.40;;;;;;5116298;28;20410;-44
2021/12/10 04:15:17;;;;;;;6.47;2.77;;;2.90;88.40;;;;;;5117280;28;20438;-45
2021/12/10 04:17:44;;;;;;;4.00;2.63;;;2.90;88.40;;;;;;5117405;28;20421;-43
2021/12/10 04:20:10;;;;;;;5.20;2.70;;;2.80;88.20;;;;;;5118112;28;20416;-46
2021/12/10 04:22:36;;;;;;;4.80;2.70;;;2.80;88.20;;;;;;5117510;28;20452;-45
2021/12/10 04:25:06;;;;;;;6.63;2.73;;;2.80;88.20;;;;;;5118566;28;20406;-45
2021/12/10 04:27:32;;;;;;;3.50;2.77;;;2.80;88.20;;;;;;5118682;28;20785;-45
2021/12/10 04:29:58;;;;;;;4.10;2.87;;;2.70;88.10;;;;;;5117525;28;20410;-45
2021/12/10 04:32:26;;;;;;;3.30;2.80;;;2.70;88.20;;;;;;5117765;28;20176;-45
2021/12/10 04:34:52;;;;;;;11.13;3.83;;;2.70;88.20;;;;;;5118731;28;20413;-45
2021/12/10 04:37:18;;;;;;;3.83;2.53;;;2.70;88.30;;;;;;5118113;28;20414;-45
2021/12/10 04:39:48;;;;;;;5.53;3.50;;;2.70;88.40;;;;;;5116968;28;20431;-45
2021/12/10 04:42:19;;;;;;;3.77;3.37;;;2.60;88.30;;;;;;5116057;28;20274;-45
2021/12/10 04:44:45;;;;;;;6.40;3.10;;;2.60;88.30;;;;;;5116665;28;20433;-46
2021/12/10 04:47:11;;;;;;;6.70;3.57;;;2.60;88.30;;;;;;5116826;28;20421;-45
2021/12/10 04:49:37;;;;;;;7.90;3.30;;;2.60;88.40;;;;;;5116650;28;20680;-45
2021/12/10 04:52:04;;;;;;;7.87;3.37;;;2.60;88.40;;;;;;5116910;28;20285;-45
2021/12/10 04:54:30;;;;;;;5.43;3.87;;;2.60;88.50;;;;;;5116592;28;20224;-45
2021/12/10 04:56:58;;;;;;;4.60;3.10;;;2.50;88.40;;;;;;5114863;28;20441;-45
2021/12/10 04:59:25;;;;;;;5.10;3.73;;;2.50;88.40;;;;;;5115506;28;20260;-45
2021/12/10 05:01:56;;;;;;;4.93;3.20;;;2.50;88.50;;;;;;5115609;28;20472;-45
2021/12/10 05:04:24;;;;;;;4.53;3.50;;;2.50;88.50;;;;;;5114989;28;20505;-48
2021/12/10 05:06:51;;;;;;;5.93;3.73;;;2.50;88.60;;;;;;5114539;28;20436;-48
2021/12/10 05:09:17;;;;;;;5.00;3.80;;;2.50;88.60;;;;;;5114258;28;20472;-48
2021/12/10 05:11:43;;;;;;;6.20;3.93;;;2.50;88.50;;;;;;5113586;28;20497;-47
2021/12/10 05:14:09;;;;;;;4.63;3.50;;;2.50;88.40;;;;;;5114198;28;20456;-47
2021/12/10 05:16:41;;;;;;;5.30;4.00;;;2.60;88.40;;;;;;5115963;28;20477;-48
2021/12/10 05:19:06;;;;;;;6.07;4.10;;;2.60;88.20;;;;;;5114249;28;20417;-47
2021/12/10 05:21:34;;;;;;;4.37;3.33;;;2.60;88.10;;;;;;5121096;28;20425;-47
2021/12/10 05:24:01;;;;;;;7.47;5.10;;;2.60;88.10;;;;;;5120498;28;20452;-47
2021/12/10 05:26:27;;;;;;;5.40;3.83;;;2.60;88.10;;;;;;5118416;28;20451;-48
2021/12/10 05:28:53;;;;;;;5.50;3.37;;;2.60;88.10;;;;;;5119118;28;20421;-47
2021/12/10 05:31:20;;;;;;;5.00;3.80;;;2.50;88.00;;;;;;5118357;28;20469;-47
2021/12/10 05:33:45;;;;;;;6.70;4.10;;;2.50;88.10;;;;;;5119361;28;20874;-48
2021/12/10 05:36:11;;;;;;;7.13;4.33;;;2.50;88.10;;;;;;5118743;28;20512;-48
2021/12/10 05:38:37;;;;;;;5.53;4.00;;;2.50;88.10;;;;;;5116509;28;20160;-48
2021/12/10 05:41:05;;;;;;;6.70;4.17;;;2.50;88.00;;;;;;5119808;27;20180;-48
2021/12/10 05:43:33;;;;;;;6.57;4.77;;;2.50;88.00;;;;;;5119697;28;20258;-48
2021/12/10 05:45:58;;;;;;;5.10;3.73;;;2.40;87.80;;;;;;5119951;28;20426;-48
2021/12/10 05:48:24;;;;;;;4.47;3.57;;;2.40;87.70;;;;;;5120558;28;20691;-48
2021/12/10 05:50:54;;;;;;;4.83;3.50;;;2.40;87.70;;;;;;5120379;28;20207;-48
2021/12/10 05:53:20;;;;;;;4.93;4.20;;;2.40;87.60;;;;;;5120788;28;20168;-48
2021/12/10 05:55:46;;;;;;;4.47;4.07;;;2.40;87.70;;;;;;5115844;28;20500;-48
2021/12/10 05:58:12;;;;;;;6.03;4.27;;;2.40;88.50;;;;;;5119566;28;20539;-48
2021/12/10 06:00:47;;;;;;;6.43;4.20;;;2.40;87.90;;;;;;5118187;28;20536;-48
2021/12/10 06:03:13;;;;;;;6.23;4.60;;;2.40;88.20;;;;;;5119566;28;20473;-48
2021/12/10 06:05:41;;;;;;;5.23;4.00;;;2.40;88.20;;;;;;5119578;28;20440;-48
2021/12/10 06:08:09;;;;;;;8.23;4.90;;;2.40;88.40;;;;;;5119509;28;20418;-48
2021/12/10 06:10:37;;;;;;;4.80;4.30;;;2.30;88.40;;;;;;5119306;28;20466;-48
2021/12/10 06:13:03;;;;;;;5.77;4.57;;;2.30;88.50;;;;;;5118238;28;20740;-48
2021/12/10 06:15:29;;;;;;;6.47;5.27;;;2.30;88.70;;;;;;5113247;28;20689;-47
2021/12/10 06:17:55;;;;;;;9.50;6.40;;;2.30;88.80;;;;;;5096918;28;20657;-48
2021/12/10 06:20:25;;;;;;;8.43;5.50;;;2.30;89.00;;;;;;5114644;28;20553;-48
2021/12/10 06:22:50;;;;;;;7.80;5.20;;;2.30;89.00;;;;;;5114963;28;20604;-48
2021/12/10 06:25:16;;;;;;;7.13;5.63;;;2.30;89.30;;;;;;5111483;28;20701;-48
2021/12/10 06:27:44;;;;;;;6.90;5.77;;;2.30;89.40;;;;;;5092795;28;20259;-48
2021/12/10 06:30:13;;;;;;;8.90;6.10;;;2.30;89.60;;;;;;5093033;28;20226;-48
2021/12/10 06:32:40;;;;;;;8.80;7.00;;;2.30;89.60;;;;;;5092343;28;20434;-48
2021/12/10 06:35:06;;;;;;;9.90;6.53;;;2.30;89.80;;;;;;5092855;28;20439;-48
2021/12/10 06:37:32;;;;;;;7.03;5.83;;;2.30;89.90;;;;;;5094038;28;20427;-52
2021/12/10 06:39:57;;;;;;;6.87;6.17;;;2.20;89.90;;;;;;5096124;28;20421;-48
2021/12/10 06:42:23;;;;;;;8.63;5.97;;;2.20;89.90;;;;;;5094432;28;20527;-48
2021/12/10 06:44:49;;;;;;;8.60;6.20;;;2.20;90.00;;;;;;5093147;28;20447;-48
2021/12/10 06:47:14;;;;;;;7.53;6.17;;;2.20;90.00;;;;;;5106922;28;20184;-48
2021/12/10 06:49:40;;;;;;;12.43;7.47;;;2.20;90.00;;;;;;5114917;28;20441;-48
2021/12/10 06:52:06;;;;;;;12.73;7.00;;;2.20;90.00;;;;;;5113206;28;20606;-48
2021/12/10 06:54:32;;;;;;;9.27;7.50;;;2.20;90.00;;;;;;5111418;27;20255;-48
2021/12/10 06:56:59;;;;;;;9.60;7.17;;;2.20;90.00;;;;;;5111544;28;20442;-46
2021/12/10 06:59:26;;;;;;;11.93;8.67;;;2.20;90.10;;;;;;5112956;28;20419;-46
2021/12/10 07:01:52;;;;;;;9.90;6.77;;;2.30;90.20;;;;;;5112765;28;20175;-47
2021/12/10 07:04:19;;;;;;;15.17;7.50;;;2.30;90.10;;;;;;5113767;28;20424;-47
2021/12/10 07:06:45;;;;;;;11.57;7.53;;;2.30;90.20;;;;;;5115146;28;20418;-47
2021/12/10 07:09:15;;;;;;;12.20;7.63;;;2.30;90.20;;;;;;5116791;28;20424;-47
2021/12/10 07:11:40;;;;;;;10.07;7.17;;;2.30;90.20;;;;;;5117096;28;20524;-47
2021/12/10 07:14:06;;;;;;;10.30;7.13;;;2.30;90.20;;;;;;5117806;28;20768;-47
2021/12/10 07:16:32;;;;;;;9.20;6.80;;;2.30;90.20;;;;;;5116969;28;20202;-47
2021/12/10 07:19:00;;;;;;;12.97;7.83;;;2.30;90.20;;;;;;5114178;28;20184;-47
2021/12/10 07:21:29;;;;;;;11.80;7.70;;;2.40;90.20;;;;;;5113996;28;20423;-47
2021/12/10 07:23:55;;;;;;;10.87;7.77;;;2.30;90.10;;;;;;5115138;28;20425;-47
2021/12/10 07:26:20;;;;;;;13.27;8.60;;;2.30;90.10;;;;;;5115630;28;20417;-47
2021/12/10 07:28:46;;;;;;;12.40;7.93;;;2.40;90.20;;;;;;5116616;28;20418;-47
2021/12/10 07:31:13;;;;;;;10.83;7.07;;;2.40;90.10;;;;;;5113946;28;20253;-47
2021/12/10 07:33:39;;;;;;;8.83;7.00;;;2.40;90.00;;;;;;5114545;28;20476;-47
2021/12/10 07:36:05;;;;;;;10.67;6.77;;;2.40;90.00;;;;;;5115679;28;20414;-47
2021/12/10 07:38:31;;;;;;;11.03;9.23;;;2.40;89.90;;;;;;5116345;28;20424;-47
2021/12/10 07:40:57;;;;;;;8.30;6.93;;;2.40;89.70;;;;;;5115542;28;20700;-47
2021/12/10 07:43:23;;;;;;;8.33;6.70;;;2.40;89.70;;;;;;5114208;28;20469;-47
2021/12/10 07:45:51;;;;;;;7.40;5.53;;;2.40;89.70;;;;;;5114516;28;20175;-47
2021/12/10 07:48:19;;;;;;;7.40;5.70;;;2.40;89.70;;;;;;5116708;27;20802;-47
2021/12/10 07:50:53;;;;;;;9.47;6.27;;;2.40;89.50;;;;;;5117006;27;20457;-47
2021/12/10 07:53:22;;;;;;;6.30;5.70;;;2.40;89.30;;;;;;5116984;28;20470;-47
2021/12/10 07:55:48;;;;;;;6.63;5.70;;;2.50;89.30;;;;;;5116542;28;20464;-47
2021/12/10 07:58:14;;;;;;;6.30;5.13;;;2.50;88.90;;;;;;5116080;28;20436;-48
2021/12/10 08:00:42;;;;;;;9.00;5.13;;;2.60;88.40;;;;;;5116434;28;20437;-49
2021/12/10 08:03:09;;;;;;;7.93;5.63;;;2.60;87.90;;;;;;5117706;28;20180;-48
2021/12/10 08:05:35;;;;;;;7.50;5.13;;;2.60;87.60;;;;;;5117656;28;20848;-48
2021/12/10 08:08:02;;;;;;;6.40;5.50;;;2.60;87.20;;;;;;5116130;28;20426;-48
2021/12/10 08:10:29;;;;;;;6.40;5.23;;;2.70;87.00;;;;;;5114271;28;21126;-48
2021/12/10 08:12:54;;;;;;;7.57;5.17;;;2.70;86.90;;;;;;5114411;28;20425;-48
2021/12/10 08:15:20;;;;;;;5.07;4.43;;;2.80;86.70;;;;;;5114193;28;20418;-48
2021/12/10 08:17:46;;;;;;;4.83;4.27;;;2.80;86.40;;;;;;5115785;28;20184;-48
2021/12/10 08:20:15;;;;;;;5.17;4.33;;;3.00;86.40;;;;;;5116262;28;20184;-48
2021/12/10 08:22:41;;;;;;;4.60;4.10;;;3.10;86.20;;;;;;5114004;27;20811;-48
2021/12/10 08:25:08;;;;;;;6.87;4.60;;;3.20;85.90;;;;;;5114693;28;20411;-48
2021/12/10 08:27:33;;;;;;;7.90;4.07;;;3.30;85.60;;;;;;5115022;28;20421;-48
2021/12/10 08:30:03;;;;;;;5.83;4.40;;;3.50;85.50;;;;;;5115399;28;20536;-48
2021/12/10 08:32:30;;;;;;;5.53;2.67;;;3.60;85.20;;;;;;5114408;28;20666;-44
2021/12/10 08:34:56;;;;;;;5.30;2.33;;;7.50;99.90;;;;;;5115098;28;20582;-45
2021/12/10 08:37:22;;;;;;;6.13;1.80;;;10.30;99.90;;;;;;5115215;28;20842;-45
2021/12/10 08:39:47;;;;;;;4.13;2.60;;;12.20;97.80;;;;;;5114615;28;20182;-41
2021/12/10 08:42:14;;;;;;;6.80;2.70;;;12.90;92.20;;;;;;5112327;28;20244;-41
2021/12/10 08:44:42;;;;;;;7.93;3.60;;;12.40;90.90;;;;;;5111833;28;20187;-40
2021/12/10 08:47:09;;;;;;;4.63;3.57;;;11.70;89.00;;;;;;5113603;28;20423;-40
2021/12/10 08:49:35;;;;;;;4.90;3.97;;;10.90;86.50;;;;;;5113368;28;20432;-41
2021/12/10 08:52:01;;;;;;;5.60;4.60;;;10.10;83.00;;;;;;5112528;28;20464;-41
2021/12/10 08:54:29;;;;;;;4.67;4.17;;;9.30;82.50;;;;;;5112544;28;20467;-40
2021/12/10 08:56:55;;;;;;;5.17;4.67;;;8.60;81.20;;;;;;5114591;28;20426;-41
2021/12/10 08:59:23;;;;;;;4.47;4.03;;;8.10;80.00;;;;;;5115668;28;20517;-41
2021/12/10 09:01:53;;;;;;;4.87;4.23;;;7.60;79.50;;;;;;5114552;28;20520;-41
2021/12/10 09:04:19;;;;;;;6.17;5.10;;;7.20;78.80;;;;;;5113206;28;20421;-40
2021/12/10 09:06:49;;;;;;;5.03;4.53;;;6.80;78.30;;;;;;5111986;28;20429;-40
2021/12/10 09:09:15;;;;;;;5.23;4.03;;;6.60;78.30;;;;;;5112842;28;20833;-42
2021/12/10 09:11:45;;;;;;;6.17;5.03;;;6.30;78.20;;;;;;5115480;28;20473;-39
2021/12/10 09:14:11;;;;;;;8.93;4.20;;;6.20;78.10;;;;;;5114249;28;20515;-40
2021/12/10 09:16:38;;;;;;;5.47;4.70;;;6.00;77.90;;;;;;5115163;28;20474;-40
2021/12/10 09:19:06;;;;;;;5.70;4.47;;;5.90;78.00;;;;;;5114323;28;20464;-40
2021/12/10 09:21:34;;;;;;;6.80;3.80;;;5.80;77.90;;;;;;5115174;28;20920;-40
2021/12/10 09:24:04;;;;;;;4.10;3.70;;;5.70;78.00;;;;;;5114096;28;20475;-42
2021/12/10 09:26:36;;;;;;;6.00;4.63;;;5.70;78.20;;;;;;5115312;28;20425;-40
2021/12/10 09:29:06;;;;;;;5.17;3.80;;;5.70;78.40;;;;;;5113705;28;20572;-41
2021/12/10 09:31:32;;;;;;;6.23;4.90;;;5.70;78.40;;;;;;5112857;28;20457;-42
2021/12/10 09:33:59;;;;;;;5.60;3.77;;;5.70;78.50;;;;;;5114507;28;20491;-42
2021/12/10 09:36:25;;;;;;;6.63;4.20;;;5.70;78.50;;;;;;5114033;28;20425;-41
2021/12/10 09:38:52;;;;;;;4.10;3.67;;;5.80;78.70;;;;;;5112617;28;20418;-41
2021/12/10 09:41:20;;;;;;;6.40;3.93;;;5.80;78.60;;;;;;5112267;28;20431;-40
2021/12/10 09:43:46;;;;;;;5.90;4.07;;;5.80;78.20;;;;;;5112637;28;20777;-41
2021/12/10 09:46:12;;;;;;;3.70;3.00;;;5.90;77.90;;;;;;5114914;28;20433;-41
2021/12/10 09:48:40;;;;;;;3.70;2.90;;;5.90;77.60;;;;;;5096105;28;20441;-41
2021/12/10 09:51:13;;;;;;;6.17;3.77;;;5.90;77.40;;;;;;5113443;28;20533;-41
2021/12/10 09:53:42;;;;;;;3.73;3.40;;;5.90;77.30;;;;;;5113125;28;20579;-40
2021/12/10 09:56:08;;;;;;;4.60;3.50;;;5.80;77.10;;;;;;5112585;28;20487;-40
2021/12/10 09:58:34;;;;;;;4.43;3.30;;;5.80;76.90;;;;;;5112901;28;20414;-41
2021/12/10 10:01:07;;;;;;;4.07;3.67;;;5.80;76.90;;;;;;5112147;28;20422;-42
2021/12/10 10:03:37;;;;;;;4.30;3.43;;;5.80;77.00;;;;;;5111365;28;20195;-42
2021/12/10 10:06:03;;;;;;;4.53;3.80;;;5.80;77.10;;;;;;5115838;28;20895;-42
2021/12/10 10:08:29;;;;;;;6.33;3.40;;;5.80;76.80;;;;;;5117683;28;20431;-41
2021/12/10 10:10:58;;;;;;;5.30;3.00;;;5.70;76.30;;;;;;5118939;28;20537;-43
2021/12/10 10:13:30;;;;;;;6.93;3.83;;;5.70;76.20;;;;;;5118611;28;20455;-40
2021/12/10 10:15:58;;;;;;;4.97;2.90;;;5.70;75.80;;;;;;5120040;28;20445;-41
2021/12/10 10:18:24;;;;;;;4.90;2.83;;;5.60;75.20;;;;;;5119575;28;20478;-41
2021/12/10 10:20:59;;;;;;;3.50;2.53;;;5.60;75.20;;;;;;5122491;28;20422;-41
2021/12/10 10:23:26;;;;;;;6.07;3.00;;;5.50;75.20;;;;;;5122290;28;20501;-41
2021/12/10 10:25:55;;;;;;;4.13;3.70;;;5.50;75.30;;;;;;5118962;28;20410;-44
2021/12/10 10:28:21;;;;;;;3.97;3.57;;;5.50;75.10;;;;;;5117785;28;20517;-43
2021/12/10 10:31:11;;;;;;;5.23;3.50;;;5.50;75.00;;;;;;5118041;28;20495;-43
2021/12/10 10:33:39;;;;;;;4.13;3.43;;;5.50;74.50;;;;;;5117245;28;20456;-41
2021/12/10 10:36:11;;;;;;;4.90;3.23;;;5.50;74.30;;;;;;5118139;28;20445;-40
2021/12/10 10:38:37;;;;;;;4.80;3.40;;;5.60;80.80;;;;;;5119264;28;20506;-41
2021/12/10 10:41:09;;;;;;;6.00;3.13;;;5.70;78.50;;;;;;5119240;28;21039;-42
2021/12/10 10:43:36;;;;;;;5.57;3.00;;;5.60;76.30;;;;;;5119469;28;20490;-41
2021/12/10 10:46:02;;;;;;;3.07;2.77;;;5.70;75.20;;;;;;5117788;27;20773;-41
2021/12/10 10:48:28;;;;;;;2.50;2.30;;;5.70;74.50;;;;;;5117656;28;20560;-40
2021/12/10 10:51:08;;;;;;;4.13;3.10;;;5.60;73.80;;;;;;5116618;28;20283;-43
2021/12/10 10:53:43;;;;;;;4.00;2.97;;;5.60;73.40;;;;;;5115594;28;20429;-41
2021/12/10 10:56:13;;;;;;;4.13;3.50;;;5.70;73.20;;;;;;5115576;28;20414;-42
2021/12/10 10:58:44;;;;;;;2.77;2.30;;;5.70;72.80;;;;;;5115039;27;20416;-43
2021/12/10 11:01:22;;;;;;;4.53;2.87;;;5.70;71.90;;;;;;5115566;28;20418;-42
2021/12/10 11:04:02;;;;;;;4.63;2.83;;;5.70;71.30;;;;;;5113941;28;20417;-41
2021/12/10 11:06:31;;;;;;;4.17;2.80;;;5.60;70.90;;;;;;5118342;28;20434;-41
2021/12/10 11:09:15;;;;;;;3.70;2.60;;;5.60;70.90;;;;;;5118922;28;20429;-40
2021/12/10 11:11:49;;;;;;;5.00;2.93;;;5.70;71.00;;;;;;5116023;28;20465;-42
2021/12/10 11:14:20;;;;;;;3.50;3.13;;;5.70;70.90;;;;;;5116802;28;20420;-40
2021/12/10 11:16:47;;;;;;;3.93;2.47;;;5.70;70.50;;;;;;5116590;28;20402;-40
2021/12/10 11:19:20;;;;;;;3.50;2.27;;;5.70;70.10;;;;;;5115830;28;20461;-41
2021/12/10 11:21:50;;;;;;;3.30;1.97;;;5.70;69.60;;;;;;5113972;28;20486;-47
2021/12/10 11:24:44;;;;;;;4.73;2.73;;;5.70;69.20;;;;;;5114456;28;20601;-41
2021/12/10 11:27:18;;;;;;;4.43;2.20;;;5.70;68.90;;;;;;5114629;28;20417;-42
2021/12/10 11:30:05;;;;;;;9.10;3.43;;;5.70;76.80;;;;;;5112409;28;20420;-41
2021/12/10 11:32:39;;;;;;;8.40;2.87;;;7.60;99.90;;;;;;5112685;28;20673;-40
2021/12/10 11:35:08;;;;;;;5.10;2.10;;;8.90;99.90;;;;;;5114057;28;20523;-41
2021/12/10 11:37:49;;;;;;;9.13;2.50;;;9.80;99.90;;;;;;5116086;28;20414;-41
2021/12/10 11:40:35;;;;;;;12.70;1.87;;;10.60;97.60;;;;;;5114851;28;20793;-41
2021/12/10 11:44:54;;;;;;;6.37;2.37;;;11.20;96.00;;;;;;5114072;28;20418;-41
2021/12/10 11:46:43;;;;;;;8.07;2.63;;;11.60;94.10;;;;;;5092352;28;20762;-42
2021/12/10 11:49:21;;;;;;;4.60;1.87;;;11.90;92.10;;;;;;5115384;28;20482;-42
2021/12/10 11:52:10;;;;;;;1.87;1.53;;;11.70;90.00;;;;;;5114163;28;20492;-41
2021/12/10 11:54:42;;;;;;;2.57;1.50;;;11.20;84.30;;;;;;5102053;28;20473;-42
2021/12/10 11:57:17;;;;;;;3.40;1.47;;;10.50;78.10;;;;;;5114779;28;20787;-42
2021/12/10 11:59:51;;;;;;;2.30;1.37;;;9.80;76.10;;;;;;5115202;28;20751;-40
2021/12/10 12:02:23;;;;;;;3.27;1.50;;;9.10;74.30;;;;;;5114926;28;20419;-41
2021/12/10 12:05:00;;;;;;;2.80;1.90;;;8.60;73.60;;;;;;5115097;28;20672;-41
2021/12/10 12:07:40;;;;;;;2.80;1.73;;;8.10;72.80;;;;;;5115176;28;20431;-41
2021/12/10 12:10:21;;;;;;;1.70;1.60;;;7.70;73.10;;;;;;5116618;27;20414;-42
2021/12/10 12:12:50;;;;;;;2.77;1.97;;;7.40;73.60;;;;;;5114791;28;20453;-41
2021/12/10 12:15:27;;;;;;;2.60;2.03;;;7.20;74.40;;;;;;5115276;28;20413;-41
2021/12/10 12:17:57;;;;;;;2.70;2.10;;;7.10;75.00;;;;;;5113959;28;20429;-42
2021/12/10 12:20:22;;;;;;;3.37;1.47;;;7.00;75.40;;;;;;5113671;28;20469;-42
2021/12/10 12:25:51;;;;;;;3.00;1.80;;;8.30;96.70;;;;;;5115401;28;20178;-42
2021/12/10 12:28:18;;;;;;;3.33;2.00;;;8.40;93.30;;;;;;5113639;28;20834;-42
2021/12/10 12:31:07;;;;;;;3.60;2.40;;;8.30;90.30;;;;;;5114159;28;20458;-43
2021/12/10 12:34:03;;;;;;;2.63;2.20;;;8.20;86.40;;;;;;5111995;28;20422;-43
2021/12/10 12:36:38;;;;;;;3.17;2.37;;;8.10;83.40;;;;;;5112622;28;20400;-42
2021/12/10 12:39:08;;;;;;;5.70;2.03;;;7.90;81.20;;;;;;5110279;28;20570;-43
2021/12/10 12:41:40;;;;;;;4.13;2.00;;;7.80;79.90;;;;;;5111822;28;20420;-43
2021/12/10 12:44:22;;;;;;;2.00;1.73;;;7.70;79.00;;;;;;5111577;28;20726;-43
2021/12/10 12:46:58;;;;;;;2.57;2.10;;;7.50;78.10;;;;;;5112596;28;20426;-43
2021/12/10 12:49:25;;;;;;;4.10;2.07;;;7.40;77.70;;;;;;5112138;28;20433;-42
2021/12/10 12:52:06;;;;;;;3.17;2.00;;;7.20;77.30;;;;;;5112564;28;20706;-42
2021/12/10 12:54:33;;;;;;;3.23;1.90;;;7.00;77.30;;;;;;5112969;28;20529;-44
2021/12/10 12:56:59;;;;;;;2.37;1.77;;;6.90;77.50;;;;;;5095198;28;20512;-42
2021/12/10 12:59:28;;;;;;;3.10;2.20;;;6.70;78.00;;;;;;5113129;28;20413;-43
2021/12/10 13:01:57;;;;;;;3.53;2.50;;;6.60;78.60;;;;;;5113944;28;20422;-43
2021/12/10 13:04:33;;;;;;;4.57;2.80;;;6.60;79.20;;;;;;5095795;28;20418;-42
2021/12/10 13:07:03;;;;;;;4.77;3.00;;;6.50;79.60;;;;;;5112752;28;20410;-42
2021/12/10 13:09:43;;;;;;;4.27;2.20;;;6.50;80.00;;;;;;5114671;28;20406;-44
2021/12/10 13:12:23;;;;;;;3.07;2.27;;;6.40;80.30;;;;;;5107059;28;20474;-42
2021/12/10 13:14:54;;;;;;;3.73;2.50;;;6.30;80.60;;;;;;5114901;28;20406;-42
2021/12/10 13:17:37;;;;;;;3.23;2.40;;;6.20;80.80;;;;;;5115630;28;20687;-43